Time;durP1;ratioP1;P1;durP2;ratioP2;P2;SDS_P1;SDS_P2;PMS_P1;PMS_P2;Temp;Humidity;BMP_temperature;BMP_pressure;BME280_temperature;BME280_humidity;BME280_pressure;Samples;Min_cycle;Max_cycle;Signal;HPM_P1;HPM_P2
2022/06/19 00:01:16;;;;;;;8.50;0.98;;;17.30;99.90;;;;;;5039444;28;20098;-45
2022/06/19 00:03:47;;;;;;;9.80;1.02;;;17.30;99.90;;;;;;5038732;28;20485;-47
2022/06/19 00:06:14;;;;;;;9.13;1.00;;;17.30;99.90;;;;;;5052155;28;20076;-47
2022/06/19 00:08:40;;;;;;;9.98;1.15;;;17.30;99.90;;;;;;5059177;28;20075;-48
2022/06/19 00:11:07;;;;;;;9.07;0.77;;;17.30;99.90;;;;;;5056353;28;20037;-46
2022/06/19 00:13:33;;;;;;;7.18;0.60;;;17.30;99.90;;;;;;5050845;28;20030;-47
2022/06/19 00:15:59;;;;;;;8.70;1.00;;;17.20;99.90;;;;;;5060046;28;20043;-46
2022/06/19 00:18:25;;;;;;;9.00;1.13;;;17.20;99.90;;;;;;5072663;28;20036;-48
2022/06/19 00:20:51;;;;;;;7.82;0.82;;;17.20;99.90;;;;;;5056740;28;20036;-47
2022/06/19 00:23:17;;;;;;;8.13;0.90;;;17.20;99.90;;;;;;5059477;28;20033;-48
2022/06/19 00:25:43;;;;;;;9.73;0.95;;;17.20;99.90;;;;;;5041714;28;20448;-47
2022/06/19 00:28:09;;;;;;;8.15;0.90;;;17.20;99.90;;;;;;5054549;28;20057;-46
2022/06/19 00:30:35;;;;;;;10.27;0.90;;;17.10;99.90;;;;;;5052034;28;20040;-48
2022/06/19 00:33:00;;;;;;;9.70;1.02;;;17.10;99.90;;;;;;5072875;28;20071;-47
2022/06/19 00:35:27;;;;;;;10.98;1.00;;;17.10;99.90;;;;;;5057606;28;20041;-46
2022/06/19 00:37:54;;;;;;;11.18;1.23;;;17.10;99.90;;;;;;5051685;28;20490;-49
2022/06/19 00:40:20;;;;;;;12.48;1.33;;;17.10;99.90;;;;;;5051710;28;20044;-46
2022/06/19 00:42:46;;;;;;;11.23;1.25;;;17.10;99.90;;;;;;5058472;28;20055;-45
2022/06/19 00:45:30;;;;;;;9.07;1.08;;;17.10;99.90;;;;;;5052527;28;20525;-50
2022/06/19 00:47:57;;;;;;;9.20;1.08;;;17.10;99.90;;;;;;5061376;28;20051;-46
2022/06/19 00:50:28;;;;;;;9.32;1.00;;;17.00;99.90;;;;;;5035552;28;20462;-48
2022/06/19 00:52:54;;;;;;;13.93;1.20;;;17.00;99.90;;;;;;5039031;28;20048;-45
2022/06/19 00:55:24;;;;;;;9.63;1.10;;;17.00;99.90;;;;;;5056663;28;20037;-45
2022/06/19 00:58:29;;;;;;;11.30;1.15;;;17.00;99.90;;;;;;5055764;28;20041;-45
2022/06/19 01:00:59;;;;;;;10.10;1.20;;;17.00;99.90;;;;;;5054688;28;20064;-45
2022/06/19 01:03:35;;;;;;;9.35;1.40;;;16.90;99.90;;;;;;5060753;28;20036;-46
2022/06/19 01:06:01;;;;;;;12.35;1.27;;;16.90;99.90;;;;;;5051241;28;20742;-47
2022/06/19 01:08:27;;;;;;;10.32;1.10;;;16.90;99.90;;;;;;5057991;28;20468;-45
2022/06/19 01:10:53;;;;;;;9.70;1.02;;;16.90;99.90;;;;;;5053107;28;20040;-46
2022/06/19 01:13:22;;;;;;;14.27;1.42;;;16.90;99.90;;;;;;5056356;28;20047;-46
2022/06/19 01:15:49;;;;;;;9.95;1.38;;;16.90;99.90;;;;;;5049865;28;20441;-46
2022/06/19 01:18:15;;;;;;;11.25;1.15;;;16.90;99.90;;;;;;5058413;28;20033;-47
2022/06/19 01:20:42;;;;;;;12.23;1.70;;;16.90;99.90;;;;;;5057309;28;20508;-45
2022/06/19 01:23:26;;;;;;;15.18;1.50;;;16.90;99.90;;;;;;5039523;28;20045;-44
2022/06/19 01:25:53;;;;;;;9.93;1.38;;;16.90;99.90;;;;;;5053805;28;20045;-44
2022/06/19 01:28:54;;;;;;;10.75;1.27;;;16.90;99.90;;;;;;5058603;28;20087;-44
2022/06/19 01:31:42;;;;;;;8.95;1.40;;;16.90;99.90;;;;;;5043888;28;20411;-45
2022/06/19 01:34:27;;;;;;;12.68;1.95;;;16.90;99.90;;;;;;5053658;28;20045;-45
2022/06/19 01:37:39;;;;;;;15.85;1.95;;;16.90;99.90;;;;;;5056014;28;20037;-46
2022/06/19 01:40:12;;;;;;;15.75;2.38;;;16.90;99.90;;;;;;5053579;28;20498;-44
2022/06/19 01:42:38;;;;;;;17.08;2.15;;;16.90;99.90;;;;;;5045956;28;20049;-44
2022/06/19 01:45:05;;;;;;;16.00;1.70;;;16.80;99.90;;;;;;5047763;28;20051;-44
2022/06/19 01:47:31;;;;;;;14.38;1.60;;;16.80;99.90;;;;;;5048943;28;21298;-45
2022/06/19 01:49:59;;;;;;;12.88;1.60;;;16.90;99.90;;;;;;5052316;28;20073;-44
2022/06/19 01:52:28;;;;;;;13.65;2.35;;;16.80;99.90;;;;;;5048283;28;20076;-45
2022/06/19 01:55:09;;;;;;;13.30;1.75;;;16.80;99.90;;;;;;5054405;28;20033;-47
2022/06/19 01:57:39;;;;;;;10.65;1.65;;;16.80;99.90;;;;;;5047213;28;20049;-45
2022/06/19 02:00:07;;;;;;;16.27;2.00;;;16.80;99.90;;;;;;5032179;28;20090;-45
2022/06/19 02:02:35;;;;;;;15.13;1.80;;;16.80;99.90;;;;;;5047573;28;20048;-45
2022/06/19 02:05:01;;;;;;;14.68;2.05;;;16.80;99.90;;;;;;5051515;28;20713;-44
2022/06/19 02:07:28;;;;;;;11.30;1.60;;;16.80;99.90;;;;;;5052241;28;20041;-44
2022/06/19 02:09:55;;;;;;;12.00;1.70;;;16.80;99.90;;;;;;5055739;28;20067;-44
2022/06/19 02:12:23;;;;;;;12.77;1.30;;;16.80;99.90;;;;;;5051218;28;20509;-44
2022/06/19 02:14:50;;;;;;;11.68;2.20;;;16.80;99.90;;;;;;5055408;28;20044;-44
2022/06/19 02:17:25;;;;;;;9.32;1.60;;;16.80;99.90;;;;;;5053574;28;20048;-45
2022/06/19 02:19:52;;;;;;;12.32;1.30;;;16.80;99.90;;;;;;5056372;28;20133;-44
2022/06/19 02:22:18;;;;;;;10.43;1.65;;;16.70;99.90;;;;;;5053301;28;20052;-45
2022/06/19 02:24:44;;;;;;;15.00;1.88;;;16.70;99.90;;;;;;5054488;28;20040;-47
2022/06/19 02:27:10;;;;;;;13.30;1.50;;;16.70;99.90;;;;;;5050097;28;20102;-45
2022/06/19 02:29:40;;;;;;;10.13;1.13;;;16.70;99.90;;;;;;5051189;28;20033;-45
2022/06/19 02:32:16;;;;;;;13.73;1.65;;;16.70;99.90;;;;;;5055089;28;20032;-44
2022/06/19 02:34:44;;;;;;;15.20;1.60;;;16.60;99.90;;;;;;5059911;28;20395;-45
2022/06/19 02:37:21;;;;;;;14.18;1.65;;;16.60;99.90;;;;;;5058243;28;20546;-44
2022/06/19 02:40:14;;;;;;;14.25;1.58;;;16.60;99.90;;;;;;5049555;28;20115;-46
2022/06/19 02:42:45;;;;;;;11.70;1.47;;;16.60;99.90;;;;;;5036614;28;20550;-44
2022/06/19 02:45:12;;;;;;;15.27;1.98;;;16.60;99.90;;;;;;5049098;28;20449;-45
2022/06/19 02:47:39;;;;;;;16.40;1.90;;;16.60;99.90;;;;;;5045331;28;20073;-45
2022/06/19 02:50:06;;;;;;;14.50;1.67;;;16.60;99.90;;;;;;5054654;28;20067;-45
2022/06/19 02:52:32;;;;;;;14.75;1.83;;;16.50;99.90;;;;;;5056843;28;20086;-48
2022/06/19 02:54:58;;;;;;;14.40;1.60;;;16.50;99.90;;;;;;5038343;28;20674;-47
2022/06/19 02:57:25;;;;;;;15.57;2.08;;;16.50;99.90;;;;;;5052973;28;20068;-44
2022/06/19 02:59:52;;;;;;;14.00;1.75;;;16.50;99.90;;;;;;5053019;28;20131;-48
2022/06/19 03:02:18;;;;;;;11.40;1.20;;;16.50;99.90;;;;;;5030158;28;20049;-44
2022/06/19 03:04:59;;;;;;;12.40;1.35;;;16.50;99.90;;;;;;5053489;28;20135;-46
2022/06/19 03:07:29;;;;;;;13.73;1.77;;;16.50;99.90;;;;;;5053127;28;20033;-44
2022/06/19 03:09:55;;;;;;;15.43;1.73;;;16.40;99.90;;;;;;5033952;28;20033;-46
2022/06/19 03:12:21;;;;;;;11.65;1.60;;;16.40;99.90;;;;;;5063970;28;20251;-46
2022/06/19 03:14:47;;;;;;;21.15;2.58;;;16.30;99.90;;;;;;5033706;28;20466;-48
2022/06/19 03:17:19;;;;;;;16.88;1.77;;;16.40;99.90;;;;;;5047765;28;20395;-45
2022/06/19 03:19:45;;;;;;;13.38;1.92;;;16.30;99.90;;;;;;5048411;28;20053;-47
2022/06/19 03:22:11;;;;;;;16.90;2.22;;;16.30;99.90;;;;;;5054374;28;20028;-44
2022/06/19 03:24:38;;;;;;;12.75;1.40;;;16.20;99.90;;;;;;5045599;28;20115;-44
2022/06/19 03:27:05;;;;;;;12.77;1.50;;;16.20;99.90;;;;;;5030290;28;20037;-45
2022/06/19 03:29:30;;;;;;;9.80;1.20;;;16.20;99.90;;;;;;5053519;28;20041;-45
2022/06/19 03:31:57;;;;;;;10.77;1.33;;;16.20;99.90;;;;;;5053294;28;20501;-44
2022/06/19 03:34:23;;;;;;;11.73;1.45;;;16.10;99.90;;;;;;5047820;28;20036;-48
2022/06/19 03:36:49;;;;;;;11.15;1.48;;;16.10;99.90;;;;;;5048763;28;20044;-47
2022/06/19 03:39:15;;;;;;;11.98;1.63;;;16.10;99.90;;;;;;5040097;28;20036;-47
2022/06/19 03:41:41;;;;;;;12.27;1.83;;;16.00;99.90;;;;;;5049123;28;20044;-46
2022/06/19 03:44:07;;;;;;;10.30;1.08;;;16.00;99.90;;;;;;5050530;28;20123;-48
2022/06/19 03:46:33;;;;;;;10.85;1.52;;;16.00;99.90;;;;;;5031965;28;20049;-47
2022/06/19 03:48:59;;;;;;;9.77;1.42;;;16.00;99.90;;;;;;5051494;28;20036;-47
2022/06/19 03:51:25;;;;;;;10.85;1.30;;;16.00;99.90;;;;;;5032714;28;20102;-46
2022/06/19 03:53:52;;;;;;;8.70;1.35;;;15.90;99.90;;;;;;5052727;28;20102;-45
2022/06/19 03:56:22;;;;;;;12.57;1.52;;;15.90;99.90;;;;;;5048030;28;20041;-46
2022/06/19 03:58:49;;;;;;;12.43;1.67;;;15.90;99.90;;;;;;5052377;28;20057;-46
2022/06/19 04:01:22;;;;;;;13.65;1.45;;;15.90;99.90;;;;;;5033894;28;20039;-46
2022/06/19 04:03:50;;;;;;;10.55;1.10;;;15.90;99.90;;;;;;5030644;28;20418;-46
2022/06/19 04:06:17;;;;;;;12.07;1.20;;;15.80;99.90;;;;;;5044171;28;20337;-48
2022/06/19 04:08:46;;;;;;;10.25;0.88;;;15.80;99.90;;;;;;5052568;28;20065;-46
2022/06/19 04:11:13;;;;;;;7.82;1.20;;;15.80;99.90;;;;;;5048644;28;20048;-48
2022/06/19 04:13:39;;;;;;;7.15;0.90;;;15.70;99.90;;;;;;5055151;28;20064;-45
2022/06/19 04:16:07;;;;;;;6.90;0.60;;;15.60;99.90;;;;;;5049196;28;20284;-48
2022/06/19 04:18:34;;;;;;;7.55;0.60;;;15.60;99.90;;;;;;5053060;28;20529;-45
2022/06/19 04:21:00;;;;;;;5.88;0.73;;;15.50;99.90;;;;;;5037346;28;20071;-45
2022/06/19 04:23:27;;;;;;;7.35;0.95;;;15.50;99.90;;;;;;5052143;28;20040;-47
2022/06/19 04:25:54;;;;;;;7.38;1.00;;;15.50;99.90;;;;;;5051818;28;20088;-48
2022/06/19 04:28:23;;;;;;;5.40;0.55;;;15.40;99.90;;;;;;5054021;28;20099;-45
2022/06/19 04:30:52;;;;;;;7.65;0.95;;;15.40;99.90;;;;;;5035611;28;20204;-47
2022/06/19 04:33:20;;;;;;;9.43;0.82;;;15.40;99.90;;;;;;5051410;28;20036;-45
2022/06/19 04:35:47;;;;;;;6.75;0.70;;;15.30;99.90;;;;;;5051783;28;20134;-49
2022/06/19 04:38:14;;;;;;;12.32;0.95;;;15.30;99.90;;;;;;5046457;28;20351;-46
2022/06/19 04:40:39;;;;;;;8.63;0.93;;;15.30;99.90;;;;;;5035239;28;20076;-45
2022/06/19 04:43:06;;;;;;;8.63;0.75;;;15.20;99.90;;;;;;5045286;28;20122;-45
2022/06/19 04:45:33;;;;;;;12.05;1.23;;;15.30;99.90;;;;;;5051456;28;20468;-45
2022/06/19 04:47:59;;;;;;;8.38;1.00;;;15.20;99.90;;;;;;5037495;28;20117;-47
2022/06/19 04:50:25;;;;;;;13.52;1.35;;;15.20;99.90;;;;;;5051649;28;20112;-46
2022/06/19 04:52:51;;;;;;;14.98;1.02;;;15.20;99.90;;;;;;5039630;28;20044;-47
2022/06/19 04:55:18;;;;;;;11.27;1.27;;;15.20;99.90;;;;;;5058240;28;20055;-46
2022/06/19 04:57:44;;;;;;;13.23;1.52;;;15.20;99.90;;;;;;5055236;28;20090;-45
2022/06/19 05:00:13;;;;;;;13.70;1.67;;;15.10;99.90;;;;;;5054425;28;20037;-46
2022/06/19 05:02:40;;;;;;;12.05;1.33;;;15.20;99.90;;;;;;5055746;28;20044;-45
2022/06/19 05:05:07;;;;;;;11.70;1.17;;;15.20;99.90;;;;;;5050492;28;20520;-45
2022/06/19 05:07:33;;;;;;;11.63;1.40;;;15.10;99.90;;;;;;5056393;28;20040;-46
2022/06/19 05:09:59;;;;;;;12.52;1.55;;;15.10;99.90;;;;;;5058648;28;20036;-45
2022/06/19 05:12:25;;;;;;;11.48;1.58;;;15.10;99.90;;;;;;5071902;28;20578;-46
2022/06/19 05:14:53;;;;;;;10.00;1.38;;;15.10;99.90;;;;;;5057483;28;20537;-46
2022/06/19 05:17:19;;;;;;;12.77;1.40;;;15.10;99.90;;;;;;5050287;28;20076;-47
2022/06/19 05:19:45;;;;;;;13.38;1.20;;;15.10;99.90;;;;;;5055040;28;20518;-48
2022/06/19 05:22:11;;;;;;;9.93;1.25;;;15.10;99.90;;;;;;5035630;28;20037;-46
2022/06/19 05:24:37;;;;;;;9.85;1.40;;;15.20;99.90;;;;;;5051510;28;20037;-49
2022/06/19 05:27:09;;;;;;;8.48;1.27;;;15.10;99.90;;;;;;5029260;28;20132;-48
2022/06/19 05:29:36;;;;;;;10.77;1.40;;;15.20;99.90;;;;;;5055810;28;20052;-46
2022/06/19 05:32:04;;;;;;;11.45;1.20;;;15.20;99.90;;;;;;5050061;28;20086;-46
2022/06/19 05:34:33;;;;;;;10.65;1.67;;;15.20;99.90;;;;;;5051781;28;21416;-49
2022/06/19 05:37:00;;;;;;;13.32;1.58;;;15.20;99.90;;;;;;5050474;28;20635;-47
2022/06/19 05:39:26;;;;;;;12.88;1.40;;;15.20;99.90;;;;;;5050736;28;20045;-47
2022/06/19 05:41:52;;;;;;;9.25;1.13;;;15.20;99.90;;;;;;5044511;28;20461;-45
2022/06/19 05:44:19;;;;;;;12.25;1.98;;;15.20;99.90;;;;;;5044706;28;20594;-48
2022/06/19 05:46:49;;;;;;;10.20;1.58;;;15.20;99.90;;;;;;5048399;28;20082;-47
2022/06/19 05:49:15;;;;;;;11.85;1.30;;;15.20;99.90;;;;;;5048400;28;20047;-49
2022/06/19 05:51:41;;;;;;;11.65;1.75;;;15.20;99.90;;;;;;5045864;28;20056;-49
2022/06/19 05:54:07;;;;;;;11.02;1.27;;;15.20;99.90;;;;;;5049977;28;20033;-47
2022/06/19 05:56:33;;;;;;;11.73;1.48;;;15.20;99.90;;;;;;5051738;28;20049;-49
2022/06/19 05:59:00;;;;;;;13.05;1.75;;;15.20;99.90;;;;;;5050380;28;20037;-49
2022/06/19 06:01:28;;;;;;;11.88;1.40;;;15.20;99.90;;;;;;5053147;28;20056;-45
2022/06/19 06:03:54;;;;;;;11.95;1.45;;;15.20;99.90;;;;;;5050896;28;20048;-48
2022/06/19 06:06:26;;;;;;;11.98;1.52;;;15.20;99.90;;;;;;5052498;28;20420;-45
2022/06/19 06:08:52;;;;;;;11.00;1.10;;;15.20;99.90;;;;;;5055976;28;20372;-46
2022/06/19 06:11:19;;;;;;;10.95;1.10;;;15.20;99.90;;;;;;5049390;28;20219;-46
2022/06/19 06:13:45;;;;;;;12.57;0.82;;;15.20;99.90;;;;;;5047876;28;20039;-47
2022/06/19 06:16:13;;;;;;;12.90;1.38;;;15.20;99.90;;;;;;5054530;28;20049;-47
2022/06/19 06:18:40;;;;;;;11.10;1.33;;;15.20;99.90;;;;;;5055070;28;20118;-45
2022/06/19 06:21:09;;;;;;;12.82;1.38;;;15.20;99.90;;;;;;5052807;28;20043;-48
2022/06/19 06:23:35;;;;;;;12.23;1.10;;;15.20;99.90;;;;;;5052683;28;20052;-49
2022/06/19 06:26:10;;;;;;;11.70;1.17;;;15.20;99.90;;;;;;5053251;28;20591;-46
2022/06/19 06:28:38;;;;;;;10.18;0.80;;;15.20;99.90;;;;;;5056237;28;20115;-45
2022/06/19 06:31:04;;;;;;;10.85;1.02;;;15.20;99.90;;;;;;5050099;28;20048;-46
2022/06/19 06:33:30;;;;;;;10.27;1.00;;;15.20;99.90;;;;;;5050274;28;20123;-45
2022/06/19 06:35:57;;;;;;;13.82;1.48;;;15.20;99.90;;;;;;5044870;28;20226;-46
2022/06/19 06:38:23;;;;;;;11.55;1.20;;;15.20;99.90;;;;;;5047932;28;20040;-46
2022/06/19 06:40:50;;;;;;;11.05;1.40;;;15.20;99.90;;;;;;5051950;28;20057;-49
2022/06/19 06:43:16;;;;;;;9.27;1.35;;;15.20;99.90;;;;;;5045889;28;20537;-46
2022/06/19 06:45:41;;;;;;;11.73;1.30;;;15.20;99.90;;;;;;5057023;28;20379;-48
2022/06/19 06:48:07;;;;;;;11.32;1.00;;;15.20;99.90;;;;;;5050608;28;20037;-47
2022/06/19 06:50:34;;;;;;;12.65;1.25;;;15.20;99.90;;;;;;5037204;28;20505;-47
2022/06/19 06:53:00;;;;;;;9.98;0.95;;;15.20;99.90;;;;;;5044332;28;20094;-48
2022/06/19 06:55:26;;;;;;;12.13;1.15;;;15.30;99.90;;;;;;5050360;28;20124;-49
2022/06/19 06:57:51;;;;;;;12.43;1.48;;;15.30;99.90;;;;;;5049352;28;20469;-48
2022/06/19 07:00:20;;;;;;;10.70;1.20;;;15.30;99.90;;;;;;5054550;28;20545;-46
2022/06/19 07:02:46;;;;;;;10.07;1.48;;;15.30;99.90;;;;;;5026914;28;20041;-49
2022/06/19 07:05:13;;;;;;;9.18;0.80;;;15.30;99.90;;;;;;5046547;28;20457;-47
2022/06/19 07:07:38;;;;;;;10.82;1.20;;;15.30;99.90;;;;;;5040287;28;20042;-45
2022/06/19 07:10:05;;;;;;;10.50;0.95;;;15.30;99.90;;;;;;5049567;28;20501;-45
2022/06/19 07:12:30;;;;;;;12.20;1.63;;;15.30;99.90;;;;;;5025627;28;20131;-47
2022/06/19 07:14:57;;;;;;;12.20;0.80;;;15.30;99.90;;;;;;5044147;28;20151;-47
2022/06/19 07:17:23;;;;;;;8.20;0.98;;;15.30;99.90;;;;;;5050440;28;20036;-47
2022/06/19 07:19:49;;;;;;;10.38;1.30;;;15.30;99.90;;;;;;5058629;28;20448;-48
2022/06/19 07:22:17;;;;;;;14.48;1.40;;;15.40;99.90;;;;;;5030313;28;20126;-46
2022/06/19 07:24:44;;;;;;;13.70;1.10;;;15.40;99.90;;;;;;5055161;28;20543;-45
2022/06/19 07:27:10;;;;;;;11.85;1.05;;;15.40;99.90;;;;;;5053115;28;20071;-46
2022/06/19 07:29:44;;;;;;;11.00;1.05;;;15.40;99.90;;;;;;5053289;28;20041;-47
2022/06/19 07:32:11;;;;;;;8.18;1.15;;;15.40;99.90;;;;;;5049287;28;20376;-48
2022/06/19 07:34:38;;;;;;;10.98;1.15;;;15.40;99.90;;;;;;5035978;28;20080;-45
2022/06/19 07:37:05;;;;;;;7.45;0.73;;;15.40;99.90;;;;;;5036460;28;20080;-46
2022/06/19 07:39:32;;;;;;;12.15;1.38;;;15.40;99.90;;;;;;5038345;28;20403;-45
2022/06/19 07:41:58;;;;;;;11.88;1.10;;;15.50;99.90;;;;;;5050492;28;20033;-47
2022/06/19 07:44:24;;;;;;;9.07;1.25;;;15.50;99.90;;;;;;5008359;28;20136;-45
2022/06/19 07:52:18;;;;;;;7.13;0.80;;;15.50;99.90;;;;;;5035517;28;20398;-46
2022/06/19 07:54:44;;;;;;;9.40;1.10;;;15.60;99.90;;;;;;5042580;28;20060;-48
2022/06/19 07:57:09;;;;;;;7.40;0.80;;;15.60;99.90;;;;;;5043230;28;20480;-47
2022/06/19 07:59:35;;;;;;;9.75;0.75;;;15.60;99.90;;;;;;5040332;28;20064;-47
2022/06/19 08:02:01;;;;;;;8.48;0.98;;;15.70;99.90;;;;;;5014442;28;20037;-46
2022/06/19 08:04:26;;;;;;;8.48;0.75;;;15.70;99.90;;;;;;5049043;28;20045;-45
2022/06/19 08:06:52;;;;;;;9.00;0.93;;;15.70;99.90;;;;;;5048782;28;20594;-46
2022/06/19 08:09:18;;;;;;;6.07;0.80;;;15.80;99.90;;;;;;5048864;28;20033;-46
2022/06/19 08:11:44;;;;;;;7.32;0.80;;;15.80;99.90;;;;;;5051125;28;20399;-45
2022/06/19 08:14:09;;;;;;;10.00;1.02;;;15.80;99.90;;;;;;5038312;28;20079;-48
2022/06/19 08:16:35;;;;;;;8.35;0.95;;;15.80;99.90;;;;;;5042575;28;20126;-46
2022/06/19 08:19:02;;;;;;;8.85;0.95;;;15.80;99.90;;;;;;5033879;28;20051;-45
2022/06/19 08:21:28;;;;;;;6.88;0.98;;;15.90;99.90;;;;;;5048379;28;20043;-48
2022/06/19 08:23:53;;;;;;;8.32;0.80;;;15.90;99.90;;;;;;5043127;28;20041;-48
2022/06/19 08:26:19;;;;;;;6.75;0.60;;;15.90;99.90;;;;;;5039312;28;20044;-45
2022/06/19 08:29:00;;;;;;;8.20;0.50;;;16.00;99.90;;;;;;5028785;28;20470;-49
2022/06/19 08:31:27;;;;;;;7.55;0.77;;;15.90;99.90;;;;;;5044540;28;20029;-45
2022/06/19 08:33:53;;;;;;;5.47;0.70;;;16.00;99.90;;;;;;5057521;28;20043;-47
2022/06/19 08:36:19;;;;;;;8.00;0.82;;;16.00;99.90;;;;;;5053908;28;20032;-49
2022/06/19 08:38:51;;;;;;;6.43;0.50;;;16.00;99.90;;;;;;5043004;28;20072;-45
2022/06/19 08:41:20;;;;;;;7.35;0.98;;;16.10;99.90;;;;;;5053476;28;20041;-45
2022/06/19 08:44:20;;;;;;;5.47;0.55;;;16.10;99.90;;;;;;5049163;28;20422;-48
2022/06/19 08:47:04;;;;;;;7.03;0.55;;;16.20;99.90;;;;;;5051397;28;20107;-44
2022/06/19 08:49:39;;;;;;;7.18;0.60;;;16.30;99.90;;;;;;5015633;28;20322;-45
2022/06/19 08:52:05;;;;;;;7.10;0.70;;;16.30;99.90;;;;;;5029600;28;20425;-47
2022/06/19 08:54:43;;;;;;;6.22;0.70;;;16.30;99.90;;;;;;5043105;28;20048;-47
2022/06/19 08:57:38;;;;;;;6.57;0.85;;;16.40;99.90;;;;;;5030020;28;20124;-45
2022/06/19 09:00:28;;;;;;;5.65;0.55;;;16.40;99.90;;;;;;5025192;28;20053;-45
2022/06/19 09:03:08;;;;;;;5.95;0.68;;;16.50;99.90;;;;;;5038105;28;20049;-45
2022/06/19 09:05:46;;;;;;;8.40;0.80;;;16.50;99.90;;;;;;5035493;28;20045;-49
2022/06/19 09:08:42;;;;;;;7.65;0.73;;;16.50;99.90;;;;;;5042151;28;20045;-46
2022/06/19 09:11:27;;;;;;;5.78;0.65;;;16.60;99.90;;;;;;5035868;28;20037;-45
2022/06/19 09:14:41;;;;;;;6.97;1.02;;;16.60;99.90;;;;;;5051865;28;20480;-45
2022/06/19 09:17:38;;;;;;;5.30;0.65;;;16.60;99.90;;;;;;5010654;28;20052;-46
2022/06/19 09:20:38;;;;;;;5.55;0.65;;;16.60;99.90;;;;;;5030606;28;20037;-45
2022/06/19 09:23:22;;;;;;;4.60;0.50;;;16.60;99.90;;;;;;5037256;28;20155;-45
2022/06/19 09:26:00;;;;;;;4.38;0.60;;;16.70;99.90;;;;;;5046952;28;20034;-47
2022/06/19 09:28:25;;;;;;;3.72;0.50;;;16.70;99.90;;;;;;5030692;28;20048;-46
2022/06/19 09:31:07;;;;;;;4.82;0.50;;;16.80;99.90;;;;;;5049276;28;20546;-46
2022/06/19 09:33:45;;;;;;;8.45;0.85;;;16.80;99.90;;;;;;5032626;28;20518;-46
2022/06/19 09:36:17;;;;;;;5.20;0.50;;;16.90;99.90;;;;;;5028875;28;20045;-46
2022/06/19 09:39:18;;;;;;;5.75;0.60;;;17.00;99.90;;;;;;5031667;28;20049;-46
2022/06/19 09:41:56;;;;;;;5.25;0.60;;;17.00;99.90;;;;;;5016210;28;20103;-46
2022/06/19 09:44:44;;;;;;;4.10;0.68;;;17.10;99.90;;;;;;5036041;28;20051;-45
2022/06/19 09:47:33;;;;;;;4.90;0.50;;;17.00;99.90;;;;;;5029503;28;20116;-45
2022/06/19 09:50:08;;;;;;;4.00;0.30;;;17.10;99.90;;;;;;5035471;28;20045;-45
2022/06/19 09:53:06;;;;;;;5.13;0.57;;;17.10;99.90;;;;;;5031612;28;20104;-47
2022/06/19 09:55:38;;;;;;;4.60;0.40;;;17.20;99.90;;;;;;5025281;28;20447;-46
2022/06/19 09:58:22;;;;;;;4.22;0.50;;;17.10;99.90;;;;;;5010182;28;20049;-47
2022/06/19 10:00:52;;;;;;;4.53;0.50;;;17.20;99.90;;;;;;5033634;28;20103;-47
2022/06/19 10:03:33;;;;;;;4.65;0.32;;;17.20;99.90;;;;;;5035567;28;20041;-45
2022/06/19 10:06:09;;;;;;;5.10;0.50;;;17.20;99.90;;;;;;5032962;28;20042;-47
2022/06/19 10:08:48;;;;;;;5.43;0.40;;;17.20;99.90;;;;;;5035143;28;20033;-46
2022/06/19 10:11:18;;;;;;;4.05;0.45;;;17.30;99.90;;;;;;5035685;28;20068;-48
2022/06/19 10:14:00;;;;;;;4.28;0.43;;;17.40;99.90;;;;;;5026405;28;20037;-47
2022/06/19 10:17:00;;;;;;;2.85;0.38;;;17.40;99.90;;;;;;5027605;28;20042;-47
2022/06/19 10:19:52;;;;;;;1.73;0.30;;;17.50;99.90;;;;;;5033302;28;20037;-46
2022/06/19 10:22:35;;;;;;;4.32;0.40;;;17.60;99.90;;;;;;5027158;28;20065;-47
2022/06/19 10:25:31;;;;;;;3.40;0.35;;;17.70;99.90;;;;;;5029300;28;20049;-46
2022/06/19 10:28:19;;;;;;;5.13;0.35;;;17.70;99.90;;;;;;5046742;28;20719;-47
2022/06/19 10:31:13;;;;;;;2.97;0.20;;;17.80;99.90;;;;;;5036565;28;20480;-47
2022/06/19 10:33:58;;;;;;;2.47;0.40;;;17.80;99.90;;;;;;5033780;28;20933;-45
2022/06/19 10:36:29;;;;;;;3.13;0.30;;;17.90;99.90;;;;;;5025617;28;20128;-46
2022/06/19 10:39:20;;;;;;;1.75;0.20;;;18.00;99.90;;;;;;5023118;28;20033;-46
2022/06/19 10:42:21;;;;;;;1.77;0.20;;;18.10;99.90;;;;;;5047309;28;20052;-47
2022/06/19 10:45:04;;;;;;;2.60;0.20;;;18.10;99.90;;;;;;5024424;28;20057;-46
2022/06/19 10:47:33;;;;;;;0.80;0.15;;;18.10;99.90;;;;;;5020117;28;20064;-46
2022/06/19 10:50:11;;;;;;;1.40;0.20;;;18.20;99.90;;;;;;5024080;28;20558;-46
2022/06/19 10:52:37;;;;;;;1.65;0.20;;;18.20;99.90;;;;;;5027609;28;20043;-47
2022/06/19 10:55:11;;;;;;;1.55;0.15;;;18.20;99.90;;;;;;5030674;28;20033;-45
2022/06/19 10:57:43;;;;;;;1.38;0.20;;;18.20;99.90;;;;;;5025682;28;20741;-49
2022/06/19 11:00:10;;;;;;;1.90;0.13;;;18.30;99.90;;;;;;5030964;28;20037;-45
2022/06/19 11:05:37;;;;;;;1.63;0.20;;;18.40;99.90;;;;;;5036047;28;20055;-46
2022/06/19 11:08:03;;;;;;;3.25;0.20;;;18.30;99.90;;;;;;5034800;28;21858;-46
2022/06/19 11:10:42;;;;;;;2.38;0.20;;;18.40;99.90;;;;;;5048425;28;20041;-45
2022/06/19 11:13:08;;;;;;;0.88;0.10;;;18.40;99.90;;;;;;5033687;28;20051;-46
2022/06/19 11:15:40;;;;;;;1.88;0.20;;;18.40;99.90;;;;;;5027404;28;20550;-47
2022/06/19 11:18:13;;;;;;;2.75;0.20;;;18.50;99.90;;;;;;5032925;28;20041;-47
2022/06/19 11:20:59;;;;;;;2.78;0.20;;;18.50;99.90;;;;;;5032427;28;20112;-44
2022/06/19 11:23:32;;;;;;;5.65;0.30;;;18.50;99.90;;;;;;5031290;28;20091;-47
2022/06/19 11:26:14;;;;;;;2.05;0.20;;;18.60;99.90;;;;;;5053476;28;20136;-44
2022/06/19 11:28:49;;;;;;;2.05;0.20;;;18.60;99.90;;;;;;5057552;28;20354;-47
2022/06/19 11:31:19;;;;;;;2.45;0.20;;;18.60;99.90;;;;;;5033599;28;20183;-48
2022/06/19 11:33:47;;;;;;;2.10;0.20;;;18.60;99.90;;;;;;5031221;28;20056;-45
2022/06/19 11:36:32;;;;;;;4.10;0.30;;;18.60;99.90;;;;;;5049631;28;20049;-45
2022/06/19 11:39:00;;;;;;;2.60;0.20;;;18.60;99.90;;;;;;5024196;28;20502;-45
2022/06/19 11:41:36;;;;;;;3.20;0.30;;;18.40;99.90;;;;;;5024435;28;20388;-47
2022/06/19 11:44:17;;;;;;;11.32;0.60;;;18.40;99.90;;;;;;5045575;28;20139;-42
2022/06/19 11:47:01;;;;;;;10.45;0.68;;;18.30;99.90;;;;;;5023349;28;20121;-52
2022/06/19 11:49:39;;;;;;;9.95;0.45;;;18.10;99.90;;;;;;5026964;28;20034;-47
2022/06/19 11:52:28;;;;;;;7.38;0.65;;;18.10;99.90;;;;;;5035655;28;20041;-45
2022/06/19 11:54:55;;;;;;;4.72;0.30;;;18.10;99.90;;;;;;5027185;28;20702;-48
2022/06/19 11:57:27;;;;;;;4.30;0.50;;;18.00;99.90;;;;;;5031752;28;20045;-47
2022/06/19 11:59:56;;;;;;;6.35;0.30;;;18.10;99.90;;;;;;5038959;28;20553;-47
2022/06/19 12:02:40;;;;;;;5.85;0.52;;;18.10;99.90;;;;;;5038638;28;20126;-47
2022/06/19 12:05:29;;;;;;;3.35;0.30;;;18.10;99.90;;;;;;5046866;28;20045;-47
2022/06/19 12:07:59;;;;;;;3.55;0.32;;;18.10;99.90;;;;;;5049102;28;20060;-46
2022/06/19 12:10:28;;;;;;;3.55;0.50;;;18.00;99.90;;;;;;5047239;28;20041;-48
2022/06/19 12:12:57;;;;;;;3.40;0.40;;;18.00;99.90;;;;;;5033832;28;20499;-47
2022/06/19 12:15:31;;;;;;;2.25;0.20;;;18.00;99.90;;;;;;5041880;28;20072;-47
2022/06/19 12:18:00;;;;;;;2.08;0.20;;;18.00;99.90;;;;;;5036962;28;20435;-50
2022/06/19 12:20:31;;;;;;;3.33;0.50;;;18.00;99.90;;;;;;5040330;28;20436;-47
2022/06/19 12:23:15;;;;;;;3.55;0.40;;;18.00;99.90;;;;;;5037460;28;20617;-49
2022/06/19 12:25:49;;;;;;;3.92;0.52;;;18.00;99.90;;;;;;5028618;28;20046;-48
2022/06/19 12:28:36;;;;;;;2.40;0.38;;;18.00;99.90;;;;;;5042059;28;20049;-46
2022/06/19 12:31:09;;;;;;;2.70;0.30;;;18.10;99.90;;;;;;5035736;28;20411;-49
2022/06/19 12:33:58;;;;;;;4.25;0.40;;;18.10;99.90;;;;;;5033069;28;20033;-49
2022/06/19 12:36:30;;;;;;;4.07;0.40;;;18.10;99.90;;;;;;5047286;28;20083;-47
2022/06/19 12:38:56;;;;;;;5.45;0.50;;;18.00;99.90;;;;;;5036834;28;20080;-47
2022/06/19 12:42:05;;;;;;;4.25;0.40;;;18.10;99.90;;;;;;5039882;28;20056;-46
2022/06/19 12:44:38;;;;;;;2.47;0.50;;;18.10;99.90;;;;;;5039945;28;20079;-47
2022/06/19 12:47:32;;;;;;;3.55;0.38;;;18.10;99.90;;;;;;5035380;28;20063;-47
2022/06/19 12:50:25;;;;;;;2.97;0.30;;;18.20;99.90;;;;;;5033148;28;20471;-50
2022/06/19 12:53:11;;;;;;;3.90;0.38;;;18.20;99.90;;;;;;5038279;28;20029;-46
2022/06/19 12:55:42;;;;;;;1.88;0.28;;;18.30;99.90;;;;;;5032484;28;20422;-46
2022/06/19 12:58:38;;;;;;;4.47;0.40;;;18.30;99.90;;;;;;5040092;28;20479;-45
2022/06/19 13:01:18;;;;;;;2.60;0.30;;;18.40;99.90;;;;;;5028292;28;20402;-47
2022/06/19 13:04:05;;;;;;;2.85;0.30;;;18.40;99.90;;;;;;5040165;28;20060;-44
2022/06/19 13:06:45;;;;;;;3.33;0.50;;;18.50;99.90;;;;;;5041242;28;20498;-45
2022/06/19 13:09:48;;;;;;;3.55;0.32;;;18.50;99.90;;;;;;5045603;28;20040;-44
2022/06/19 13:12:37;;;;;;;2.70;0.30;;;18.50;99.90;;;;;;5043547;28;20071;-43
2022/06/19 13:15:35;;;;;;;3.95;0.40;;;18.50;99.90;;;;;;5039061;28;20033;-44
2022/06/19 13:18:19;;;;;;;5.32;0.30;;;18.50;99.90;;;;;;4982835;28;20056;-45